createdAt,value
2019-01-26T00:00:56.487Z,0.10
2019-01-26T00:03:26.878Z,0.20
2019-01-26T00:05:57.253Z,0.20
2019-01-26T00:08:27.595Z,0.20
2019-01-26T00:10:58.083Z,0.20
2019-01-26T00:13:28.478Z,0.20
2019-01-26T00:15:58.835Z,0.20
2019-01-26T00:18:29.282Z,0.20
2019-01-26T00:20:59.706Z,0.20
2019-01-26T00:23:30.085Z,0.20
2019-01-26T00:26:00.477Z,0.30
2019-01-26T00:28:30.941Z,0.20
2019-01-26T00:31:07.020Z,0.20
2019-01-26T00:33:36.915Z,0.20
2019-01-26T00:36:07.476Z,0.20
2019-01-26T00:38:37.833Z,0.20
2019-01-26T00:41:08.300Z,0.20
2019-01-26T00:43:38.950Z,0.10
2019-01-26T00:46:09.398Z,0.10
2019-01-26T00:48:39.772Z,0.00
2019-01-26T00:51:10.318Z,0.00
2019-01-26T00:53:40.719Z,-0.10
2019-01-26T00:56:11.180Z,-0.10
2019-01-26T00:58:41.636Z,-0.10
2019-01-26T01:01:12.163Z,-0.20
2019-01-26T01:03:42.547Z,-0.20
2019-01-26T01:06:12.996Z,-0.30
2019-01-26T01:08:43.457Z,-0.30
2019-01-26T01:11:14.016Z,-0.30
2019-01-26T01:13:44.325Z,-0.30
2019-01-26T01:16:14.766Z,-0.20
2019-01-26T01:18:45.124Z,-0.20
2019-01-26T01:21:15.673Z,-0.30
2019-01-26T01:23:46.114Z,-0.30
2019-01-26T01:26:16.511Z,-0.30
2019-01-26T01:28:46.995Z,-0.30
2019-01-26T01:31:17.672Z,-0.30
2019-01-26T01:33:48.092Z,-0.20
2019-01-26T01:36:18.729Z,-0.30
2019-01-26T01:38:49.194Z,-0.30
2019-01-26T01:41:19.529Z,-0.20
2019-01-26T01:43:49.866Z,-0.30
2019-01-26T01:46:20.208Z,-0.30
2019-01-26T01:48:50.623Z,-0.20
2019-01-26T01:51:21.068Z,-0.20
2019-01-26T01:53:51.742Z,-0.10
2019-01-26T01:56:22.111Z,-0.10
2019-01-26T01:58:52.503Z,-0.10
2019-01-26T02:01:22.870Z,0.00
2019-01-26T02:03:53.083Z,0.00
2019-01-26T02:06:23.595Z,0.00
2019-01-26T02:08:53.954Z,-0.10
2019-01-26T02:11:24.263Z,-0.10
2019-01-26T02:13:54.588Z,-0.10
2019-01-26T02:16:24.891Z,-0.10
2019-01-26T02:18:55.109Z,-0.10
2019-01-26T02:21:25.485Z,-0.10
2019-01-26T02:23:55.613Z,0.00
2019-01-26T02:26:25.975Z,0.00
2019-01-26T02:28:58.276Z,0.00
2019-01-26T02:31:28.658Z,0.00
2019-01-26T02:33:58.994Z,0.00
2019-01-26T02:36:29.281Z,0.00
2019-01-26T02:38:59.664Z,0.10
2019-01-26T02:41:30.036Z,0.10
2019-01-26T02:44:00.229Z,0.10
2019-01-26T02:46:30.497Z,0.20
2019-01-26T02:49:00.906Z,0.20
2019-01-26T02:51:31.242Z,0.20
2019-01-26T02:54:01.498Z,0.30
2019-01-26T02:56:31.814Z,0.30
2019-01-26T02:59:04.254Z,0.30
2019-01-26T03:01:34.636Z,0.30
2019-01-26T03:04:05.371Z,0.30
2019-01-26T03:06:35.785Z,0.40
2019-01-26T03:09:09.988Z,0.40
2019-01-26T03:11:40.272Z,0.50
2019-01-26T03:14:10.719Z,0.40
2019-01-26T03:16:41.111Z,0.50
2019-01-26T03:19:11.555Z,0.50
2019-01-26T03:21:41.863Z,0.50
2019-01-26T03:24:12.425Z,0.60
2019-01-26T03:26:42.786Z,0.60
2019-01-26T03:29:13.252Z,0.70
2019-01-26T03:31:43.695Z,0.80
2019-01-26T03:34:14.006Z,0.70
2019-01-26T03:36:44.302Z,0.70
2019-01-26T03:39:14.685Z,0.70
2019-01-26T03:41:45.086Z,0.80
2019-01-26T03:44:15.434Z,0.80
2019-01-26T03:46:45.739Z,0.80
2019-01-26T03:49:16.085Z,0.80
2019-01-26T03:51:46.464Z,0.90
2019-01-26T03:54:16.870Z,0.90
2019-01-26T03:56:47.215Z,0.90
2019-01-26T03:59:17.629Z,0.90
2019-01-26T04:01:47.921Z,0.90
2019-01-26T04:04:18.384Z,0.90
2019-01-26T04:06:48.794Z,1.00
2019-01-26T04:09:19.151Z,1.00
2019-01-26T04:11:49.499Z,1.10
2019-01-26T04:14:19.800Z,1.10
2019-01-26T04:16:50.119Z,1.20
2019-01-26T04:19:20.519Z,1.30
2019-01-26T04:21:50.898Z,1.30
2019-01-26T04:24:21.629Z,1.40
2019-01-26T04:26:52.031Z,1.40
2019-01-26T04:29:22.293Z,1.40
2019-01-26T04:31:52.787Z,1.50
2019-01-26T04:34:23.246Z,1.50
2019-01-26T04:36:53.532Z,1.60
2019-01-26T04:39:23.772Z,1.60
2019-01-26T04:41:54.098Z,1.60
2019-01-26T04:44:24.534Z,1.70
2019-01-26T04:46:54.867Z,1.70
2019-01-26T04:49:25.239Z,1.70
2019-01-26T04:51:55.592Z,1.80
2019-01-26T04:54:25.861Z,1.80
2019-01-26T04:56:56.214Z,1.80
2019-01-26T04:59:26.603Z,1.80
2019-01-26T05:01:56.987Z,1.90
2019-01-26T05:04:27.310Z,1.90
2019-01-26T05:06:57.701Z,2.00
2019-01-26T05:09:28.029Z,2.00
2019-01-26T05:11:59.634Z,2.00
2019-01-26T05:14:30.039Z,2.00
2019-01-26T05:17:00.318Z,2.00
2019-01-26T05:19:30.611Z,2.10
2019-01-26T05:22:04.009Z,1.90
2019-01-26T05:24:34.261Z,1.90
2019-01-26T05:27:04.819Z,1.80
2019-01-26T05:29:35.374Z,1.80
2019-01-26T05:32:06.100Z,1.90
2019-01-26T05:34:36.411Z,1.90
2019-01-26T05:37:06.918Z,1.80
2019-01-26T05:39:37.243Z,1.80
2019-01-26T05:42:07.518Z,1.70
2019-01-26T05:44:37.854Z,1.70
2019-01-26T05:47:08.269Z,1.70
2019-01-26T05:49:38.571Z,1.70
2019-01-26T05:52:09.060Z,1.70
2019-01-26T05:54:39.484Z,1.70
2019-01-26T05:57:09.806Z,1.70
2019-01-26T05:59:40.104Z,1.80
2019-01-26T06:02:11.050Z,1.80
2019-01-26T06:04:41.375Z,1.70
2019-01-26T06:07:11.693Z,1.70
2019-01-26T06:09:42.128Z,1.70
2019-01-26T06:12:12.602Z,1.70
2019-01-26T06:14:43.021Z,1.80
2019-01-26T06:17:13.426Z,1.70
2019-01-26T06:19:43.971Z,1.80
2019-01-26T06:22:14.322Z,1.90
2019-01-26T06:24:44.737Z,2.00
2019-01-26T06:27:15.203Z,2.20
2019-01-26T06:29:45.581Z,2.30
2019-01-26T06:32:16.856Z,2.40
2019-01-26T06:34:47.206Z,2.40
2019-01-26T06:37:17.613Z,2.50
2019-01-26T06:39:47.981Z,2.60
2019-01-26T06:42:18.306Z,2.60
2019-01-26T06:44:48.698Z,2.60
2019-01-26T06:47:19.066Z,2.60
2019-01-26T06:49:49.297Z,2.60
2019-01-26T06:52:19.774Z,2.90
2019-01-26T06:54:50.265Z,2.90
2019-01-26T06:57:20.708Z,2.90
2019-01-26T06:59:51.046Z,2.80
2019-01-26T07:02:21.517Z,2.80
2019-01-26T07:05:00.090Z,2.80
2019-01-26T07:07:30.625Z,2.90
2019-01-26T07:10:00.928Z,2.90
2019-01-26T07:12:31.478Z,2.90
2019-01-26T07:15:01.888Z,2.90
2019-01-26T07:17:32.426Z,3.00
2019-01-26T07:20:02.813Z,3.00
2019-01-26T07:22:33.195Z,3.10
2019-01-26T07:25:03.615Z,3.10
2019-01-26T07:27:33.928Z,3.10
2019-01-26T07:30:05.070Z,3.10
2019-01-26T07:32:35.511Z,3.10
2019-01-26T07:35:06.267Z,3.20
2019-01-26T07:37:36.634Z,3.20
2019-01-26T07:40:10.321Z,3.30
2019-01-26T07:42:40.654Z,3.30
2019-01-26T07:45:12.101Z,3.40
2019-01-26T07:47:42.629Z,3.40
2019-01-26T07:50:17.833Z,3.40
2019-01-26T07:52:49.174Z,3.40
2019-01-26T07:55:19.679Z,3.50
2019-01-26T07:57:50.251Z,3.50
2019-01-26T08:00:26.286Z,3.60
2019-01-26T08:02:56.767Z,3.60
2019-01-26T08:05:27.681Z,3.70
2019-01-26T08:07:58.107Z,3.80
2019-01-26T08:10:28.631Z,3.80
2019-01-26T08:12:59.034Z,3.90
2019-01-26T08:15:33.665Z,4.00
2019-01-26T08:18:05.069Z,4.00
2019-01-26T08:20:35.511Z,4.00
2019-01-26T08:23:06.008Z,4.10
2019-01-26T08:25:36.482Z,4.10
2019-01-26T08:28:06.918Z,4.10
2019-01-26T08:30:37.424Z,4.20
2019-01-26T08:33:07.750Z,4.20
2019-01-26T08:35:38.152Z,4.20
2019-01-26T08:38:13.295Z,4.30
2019-01-26T08:40:43.678Z,4.30
2019-01-26T08:43:14.085Z,4.40
2019-01-26T08:45:44.596Z,4.50
2019-01-26T08:48:15.203Z,4.40
2019-01-26T08:50:45.642Z,4.40
2019-01-26T08:53:18.302Z,4.50
2019-01-26T08:55:48.636Z,4.50
2019-01-26T08:58:19.167Z,4.40
2019-01-26T09:00:49.610Z,4.50
2019-01-26T09:03:44.956Z,4.40
2019-01-26T09:06:36.743Z,4.30
2019-01-26T09:09:12.246Z,4.30
2019-01-26T09:11:42.782Z,4.20
2019-01-26T09:14:13.321Z,4.20
2019-01-26T09:16:43.878Z,4.20
2019-01-26T09:19:14.337Z,4.30
2019-01-26T09:21:44.884Z,4.30
2019-01-26T09:24:15.739Z,4.40
2019-01-26T09:26:46.227Z,4.60
2019-01-26T09:29:17.652Z,4.60
2019-01-26T09:31:48.586Z,4.60
2019-01-26T09:34:18.917Z,4.70
2019-01-26T09:36:49.404Z,4.70
2019-01-26T09:39:19.859Z,4.70
2019-01-26T09:41:50.338Z,4.70
2019-01-26T09:44:21.869Z,4.80
2019-01-26T09:46:52.791Z,4.80
2019-01-26T09:49:23.128Z,5.00
2019-01-26T09:51:53.746Z,5.00
2019-01-26T09:54:24.331Z,5.00
2019-01-26T09:56:54.804Z,5.00
2019-01-26T09:59:25.122Z,5.10
2019-01-26T10:01:55.496Z,5.10
2019-01-26T10:04:25.871Z,5.10
2019-01-26T10:06:56.320Z,5.10
2019-01-26T10:09:26.842Z,5.10
2019-01-26T10:11:57.409Z,5.10
2019-01-26T10:14:27.915Z,5.20
2019-01-26T10:16:58.437Z,5.20
2019-01-26T10:19:28.804Z,5.10
2019-01-26T10:21:59.543Z,4.90
2019-01-26T10:24:30.522Z,4.90
2019-01-26T10:27:01.212Z,5.00
2019-01-26T10:29:32.810Z,5.30
2019-01-26T10:32:03.547Z,5.60
2019-01-26T10:34:35.735Z,5.70
2019-01-26T10:37:13.218Z,5.70
2019-01-26T10:39:43.684Z,5.80
2019-01-26T10:42:31.292Z,6.00
2019-01-26T10:45:02.764Z,6.10
2019-01-26T10:47:33.164Z,6.20
2019-01-26T10:50:03.628Z,6.20
2019-01-26T10:52:34.114Z,6.30
2019-01-26T10:55:05.270Z,6.40
2019-01-26T10:57:35.726Z,6.50
2019-01-26T11:00:11.272Z,6.80
2019-01-26T11:02:41.711Z,7.00
2019-01-26T11:05:12.189Z,7.20
2019-01-26T11:07:42.516Z,7.20
2019-01-26T11:10:13.930Z,7.20
2019-01-26T11:12:44.400Z,7.40
2019-01-26T11:15:15.023Z,7.30
2019-01-26T11:17:45.516Z,7.20
2019-01-26T11:20:16.400Z,7.10
2019-01-26T11:22:46.878Z,7.00
2019-01-26T11:25:18.451Z,6.80
2019-01-26T11:27:48.886Z,6.70
2019-01-26T11:30:20.677Z,6.70
2019-01-26T11:32:51.150Z,6.60
2019-01-26T11:35:21.622Z,6.50
2019-01-26T11:37:52.185Z,6.50
2019-01-26T11:40:23.726Z,6.60
2019-01-26T11:42:54.221Z,6.80
2019-01-26T11:45:42.089Z,7.30
2019-01-26T11:48:19.737Z,7.40
2019-01-26T11:50:56.016Z,7.30
2019-01-26T11:53:27.321Z,7.20
2019-01-26T11:56:08.978Z,7.40
2019-01-26T11:58:39.394Z,7.30
2019-01-26T12:01:22.111Z,7.40
2019-01-26T12:04:10.777Z,7.60
2019-01-26T12:06:49.792Z,7.60
2019-01-26T12:09:20.418Z,7.70
2019-01-26T12:11:50.872Z,7.50
2019-01-26T12:14:21.162Z,7.50
2019-01-26T12:16:51.703Z,7.60
2019-01-26T12:19:22.608Z,7.50
2019-01-26T12:21:52.989Z,7.40
2019-01-26T12:24:23.729Z,7.20
2019-01-26T12:26:54.269Z,7.00
2019-01-26T12:29:24.655Z,6.80
2019-01-26T12:31:55.026Z,6.60
2019-01-26T12:34:25.444Z,6.50
2019-01-26T12:36:55.859Z,6.50
2019-01-26T12:39:26.418Z,6.50
2019-01-26T12:41:56.786Z,6.50
2019-01-26T12:44:27.255Z,6.50
2019-01-26T12:46:57.927Z,6.50
2019-01-26T12:49:30.842Z,6.50
2019-01-26T12:52:04.877Z,6.30
2019-01-26T12:54:35.003Z,6.30
2019-01-26T12:57:06.046Z,6.20
2019-01-26T12:59:36.555Z,6.20
2019-01-26T13:02:09.082Z,6.10
2019-01-26T13:04:39.804Z,6.10
2019-01-26T13:07:10.185Z,6.00
2019-01-26T13:09:40.566Z,6.00
2019-01-26T13:12:11.092Z,6.00
2019-01-26T13:14:41.616Z,6.00
2019-01-26T13:17:12.123Z,6.10
2019-01-26T13:19:42.575Z,6.00
2019-01-26T13:22:13.094Z,6.10
2019-01-26T13:24:43.374Z,6.00
2019-01-26T13:27:18.854Z,6.00
2019-01-26T13:29:49.252Z,6.00
2019-01-26T13:32:19.963Z,6.00
2019-01-26T13:34:50.670Z,6.00
2019-01-26T13:37:21.212Z,6.10
2019-01-26T13:39:51.542Z,6.00
2019-01-26T13:42:21.797Z,6.00
2019-01-26T13:44:52.163Z,6.00
2019-01-26T13:47:24.405Z,6.00
2019-01-26T13:49:54.731Z,5.90
2019-01-26T13:52:25.124Z,5.90
2019-01-26T13:54:55.614Z,5.80
2019-01-26T13:57:25.921Z,5.80
2019-01-26T13:59:56.216Z,5.90
2019-01-26T14:02:26.602Z,5.90
2019-01-26T14:04:56.991Z,5.90
2019-01-26T14:07:27.219Z,5.90
2019-01-26T14:09:57.575Z,5.90
2019-01-26T14:12:30.350Z,5.90
2019-01-26T14:15:00.793Z,5.80
2019-01-26T14:17:31.317Z,5.70
2019-01-26T14:20:02.295Z,5.70
2019-01-26T14:22:32.664Z,5.50
2019-01-26T14:25:03.066Z,5.50
2019-01-26T14:27:33.457Z,5.40
2019-01-26T14:30:04.782Z,5.40
2019-01-26T14:32:35.100Z,5.40
2019-01-26T14:35:05.755Z,5.40
2019-01-26T14:37:35.983Z,5.40
2019-01-26T14:40:07.166Z,5.40
2019-01-26T14:42:37.537Z,5.40
2019-01-26T14:45:09.473Z,5.40
2019-01-26T14:47:39.816Z,5.40
2019-01-26T14:50:11.997Z,5.40
2019-01-26T14:52:42.493Z,5.40
2019-01-26T14:55:17.007Z,5.40
2019-01-26T14:57:47.370Z,5.40
2019-01-26T15:00:25.429Z,5.40
2019-01-26T15:02:55.882Z,5.40
2019-01-26T15:05:27.023Z,5.30
2019-01-26T15:07:58.164Z,5.30
2019-01-26T15:10:28.592Z,5.30
2019-01-26T15:12:58.954Z,5.20
2019-01-26T15:15:29.435Z,5.20
2019-01-26T15:17:59.708Z,5.10
2019-01-26T15:20:34.108Z,5.10
2019-01-26T15:23:04.615Z,5.00
2019-01-26T15:25:34.969Z,5.10
2019-01-26T15:28:05.889Z,5.10
2019-01-26T15:30:42.553Z,5.10
2019-01-26T15:33:15.162Z,5.10
2019-01-26T15:35:45.607Z,5.00
2019-01-26T15:38:15.992Z,5.00
2019-01-26T15:40:46.410Z,5.00
2019-01-26T15:43:16.807Z,4.90
2019-01-26T15:45:49.808Z,4.90
2019-01-26T15:48:23.103Z,4.80
2019-01-26T15:50:53.532Z,4.80
2019-01-26T15:53:23.776Z,4.80
2019-01-26T15:55:54.110Z,4.80
2019-01-26T15:58:24.557Z,4.80
2019-01-26T16:00:54.795Z,4.80
2019-01-26T16:03:25.152Z,4.70
2019-01-26T16:05:55.508Z,4.80
2019-01-26T16:08:25.929Z,4.80
2019-01-26T16:10:56.094Z,4.80
2019-01-26T16:13:26.558Z,4.80
2019-01-26T16:15:56.867Z,4.70
2019-01-26T16:18:27.306Z,4.70
2019-01-26T16:20:57.731Z,4.60
2019-01-26T16:23:28.162Z,4.60
2019-01-26T16:25:58.587Z,4.60
2019-01-26T16:28:29.037Z,4.60
2019-01-26T16:31:00.086Z,4.60
2019-01-26T16:33:30.489Z,4.60
2019-01-26T16:36:00.711Z,4.60
2019-01-26T16:38:32.979Z,4.60
2019-01-26T16:41:03.283Z,4.60
2019-01-26T16:43:34.961Z,4.60
2019-01-26T16:46:05.798Z,4.60
2019-01-26T16:48:36.425Z,4.60
2019-01-26T16:51:06.882Z,4.60
2019-01-26T16:53:37.377Z,4.50
2019-01-26T16:56:10.074Z,4.60
2019-01-26T16:58:41.373Z,4.50
2019-01-26T17:01:11.764Z,4.50
2019-01-26T17:03:42.151Z,4.50
2019-01-26T17:06:12.548Z,4.50
2019-01-26T17:08:42.846Z,4.50
2019-01-26T17:11:16.801Z,4.50
2019-01-26T17:13:47.161Z,4.50
2019-01-26T17:16:17.569Z,4.50
2019-01-26T17:18:48.098Z,4.50
2019-01-26T17:21:18.472Z,4.50
2019-01-26T17:23:48.941Z,4.50
2019-01-26T17:26:19.328Z,4.50
2019-01-26T17:28:49.846Z,4.50
2019-01-26T17:31:20.415Z,4.50
2019-01-26T17:33:50.698Z,4.50
2019-01-26T17:36:21.851Z,4.50
2019-01-26T17:38:52.201Z,4.50
2019-01-26T17:41:22.363Z,4.50
2019-01-26T17:43:52.688Z,4.50
2019-01-26T17:46:23.028Z,4.40
2019-01-26T17:48:53.368Z,4.40
2019-01-26T17:51:24.035Z,4.40
2019-01-26T17:53:54.471Z,4.60
2019-01-26T17:56:24.709Z,4.70
2019-01-26T17:58:55.029Z,4.60
2019-01-26T18:01:25.474Z,4.60
2019-01-26T18:03:55.859Z,4.60
2019-01-26T18:06:26.231Z,4.50
2019-01-26T18:08:56.592Z,4.40
2019-01-26T18:11:26.932Z,4.40
2019-01-26T18:13:57.411Z,4.40
2019-01-26T18:16:27.732Z,4.40
2019-01-26T18:18:58.140Z,4.40
2019-01-26T18:21:28.595Z,4.40
2019-01-26T18:23:59.461Z,4.50
2019-01-26T18:26:29.865Z,4.50
2019-01-26T18:29:00.350Z,4.50
2019-01-26T18:31:30.720Z,4.50
2019-01-26T18:34:00.915Z,4.50
2019-01-26T18:36:31.522Z,4.50
2019-01-26T18:39:01.990Z,4.40
2019-01-26T18:41:32.522Z,4.40
2019-01-26T18:44:02.884Z,4.40
2019-01-26T18:46:56.548Z,4.40
2019-01-26T18:49:27.033Z,4.40
2019-01-26T18:51:57.453Z,4.40
2019-01-26T18:54:27.800Z,4.30
2019-01-26T18:56:58.227Z,4.30
2019-01-26T18:59:28.665Z,4.30
2019-01-26T19:01:59.239Z,4.30
2019-01-26T19:04:48.814Z,4.30
2019-01-26T19:07:19.173Z,4.30
2019-01-26T19:09:49.551Z,4.30
2019-01-26T19:12:20.052Z,4.30
2019-01-26T19:14:50.288Z,4.30
2019-01-26T19:17:20.637Z,4.30
2019-01-26T19:19:51.036Z,4.20
2019-01-26T19:22:21.405Z,4.30
2019-01-26T19:24:51.686Z,4.30
2019-01-26T19:27:22.133Z,4.30
2019-01-26T19:29:52.495Z,4.30
2019-01-26T19:32:22.857Z,4.30
2019-01-26T19:34:54.307Z,4.30
2019-01-26T19:37:24.647Z,4.30
2019-01-26T19:39:55.039Z,4.30
2019-01-26T19:42:25.540Z,4.30
2019-01-26T19:44:55.865Z,4.30
2019-01-26T19:47:26.271Z,4.30
2019-01-26T19:49:56.612Z,4.30
2019-01-26T19:52:26.999Z,4.20
2019-01-26T19:54:57.394Z,4.20
2019-01-26T19:57:27.763Z,4.10
2019-01-26T19:59:58.321Z,4.10
2019-01-26T20:02:29.890Z,4.10
2019-01-26T20:05:00.493Z,4.10
2019-01-26T20:07:31.061Z,4.00
2019-01-26T20:10:01.606Z,4.00
2019-01-26T20:12:32.311Z,3.90
2019-01-26T20:15:03.359Z,3.90
2019-01-26T20:17:34.047Z,3.90
2019-01-26T20:20:05.537Z,3.90
2019-01-26T20:22:35.953Z,3.90
2019-01-26T20:25:07.202Z,3.90
2019-01-26T20:27:37.605Z,3.90
2019-01-26T20:30:12.884Z,3.90
2019-01-26T20:32:43.530Z,3.90
2019-01-26T20:35:13.927Z,3.80
2019-01-26T20:37:44.248Z,3.70
2019-01-26T20:40:16.804Z,3.60
2019-01-26T20:42:47.225Z,3.60
2019-01-26T20:45:21.074Z,3.50
2019-01-26T20:47:51.661Z,3.40
2019-01-26T20:50:23.667Z,3.40
2019-01-26T20:52:54.135Z,3.30
2019-01-26T20:55:24.658Z,3.30
2019-01-26T20:57:55.176Z,3.20
2019-01-26T21:00:28.907Z,3.20
2019-01-26T21:02:59.457Z,3.30
2019-01-26T21:05:29.893Z,3.30
2019-01-26T21:08:00.231Z,3.30
2019-01-26T21:10:31.405Z,3.30
2019-01-26T21:13:03.970Z,3.30
2019-01-26T21:15:34.427Z,3.30
2019-01-26T21:18:04.881Z,3.40
2019-01-26T21:20:35.337Z,3.40
2019-01-26T21:23:06.739Z,3.40
2019-01-26T21:25:37.230Z,3.40
2019-01-26T21:28:07.802Z,3.30
2019-01-26T21:30:38.201Z,3.40
2019-01-26T21:33:08.685Z,3.40
2019-01-26T21:35:39.035Z,3.40
2019-01-26T21:38:09.532Z,3.50
2019-01-26T21:40:41.150Z,3.50
2019-01-26T21:43:11.629Z,3.60
2019-01-26T21:45:57.193Z,3.70
2019-01-26T21:48:27.617Z,3.80
2019-01-26T21:50:57.944Z,3.80
2019-01-26T21:53:28.340Z,3.80
2019-01-26T21:55:58.795Z,3.90
2019-01-26T21:58:29.061Z,3.90
2019-01-26T22:00:59.591Z,3.90
2019-01-26T22:03:31.050Z,4.00
2019-01-26T22:06:02.253Z,4.00
2019-01-26T22:08:32.578Z,4.00
2019-01-26T22:11:03.891Z,4.00
2019-01-26T22:13:34.442Z,4.00
2019-01-26T22:16:04.951Z,4.10
2019-01-26T22:18:35.295Z,4.10
2019-01-26T22:21:07.953Z,4.20
2019-01-26T22:23:38.831Z,4.30
2019-01-26T22:26:09.339Z,4.30
2019-01-26T22:28:39.810Z,4.30
2019-01-26T22:31:10.133Z,4.30
2019-01-26T22:33:40.371Z,4.30
2019-01-26T22:36:10.688Z,4.30
2019-01-26T22:38:41.103Z,4.30
2019-01-26T22:41:11.511Z,4.30
2019-01-26T22:43:41.750Z,4.30
2019-01-26T22:46:12.159Z,4.30
2019-01-26T22:48:42.534Z,4.30
2019-01-26T22:51:14.669Z,4.20
2019-01-26T22:53:45.133Z,4.10
2019-01-26T22:56:16.994Z,4.10
2019-01-26T22:58:47.454Z,4.00
2019-01-26T23:01:35.138Z,4.00
2019-01-26T23:04:50.399Z,4.10
2019-01-26T23:07:57.313Z,4.10
2019-01-26T23:11:36.101Z,4.10
2019-01-26T23:15:23.642Z,4.00
2019-01-26T23:18:46.253Z,3.90
2019-01-26T23:21:47.420Z,4.00
2019-01-26T23:25:22.033Z,4.00
2019-01-26T23:28:14.984Z,4.00
2019-01-26T23:31:21.667Z,4.00
2019-01-26T23:33:54.015Z,4.10
2019-01-26T23:36:24.490Z,4.00
2019-01-26T23:39:01.937Z,4.00
2019-01-26T23:41:27.108Z,3.90
2019-01-26T23:43:57.510Z,3.90
2019-01-26T23:46:27.838Z,3.90
2019-01-26T23:48:58.874Z,3.80
2019-01-26T23:51:29.356Z,3.90
2019-01-26T23:53:59.717Z,3.90
2019-01-26T23:56:30.050Z,3.80
2019-01-26T23:59:00.390Z,3.80
